Qian Gorlos, China
Current Conditions -  °F | °C
As of 12:00 PM on Wednesday 28 Jan 2015 (Local Time) from ZYHB Reporting Station
Smoke Smoke  
Wind Chill: -7°   Ceiling: Unl
Heat Index:   Visibility: 3mi
Dew Point: -4°   Wind: 9mph
Humidity: 61%   Direction: 220°SW
Pressure: 30.48"   Gusts: NA
Location:  45.12°N, 124.83°E
Report Text: ZYHB 280400Z 22004MPS 5000 FU NSC M14/M20 Q1032 NOSIG
Loading
Personal Weather Stations






























Interactive Weather Map New forecast layout! Learn more

10-Day Weather Forecast

Advertisements
Track Severe Weather on mobile